sensor_id;sensor_type;location;lat;lon;timestamp;pressure;altitude;pressure_sealevel;temperature;humidity
48386;BME280;34644;47.964;7.982;2023-08-08T00:05:31;96889.63;;;17.98;55.62
48386;BME280;34644;47.964;7.982;2023-08-08T00:12:34;96886.41;;;17.96;55.52
48386;BME280;34644;47.964;7.982;2023-08-08T00:19:34;96890.97;;;17.96;55.57
48386;BME280;34644;47.964;7.982;2023-08-08T00:26:34;96886.44;;;17.91;55.46
48386;BME280;34644;47.964;7.982;2023-08-08T00:33:35;96889.13;;;17.91;55.59
48386;BME280;34644;47.964;7.982;2023-08-08T00:40:35;96889.38;;;17.89;55.53
48386;BME280;34644;47.964;7.982;2023-08-08T00:47:39;96882.47;;;17.88;55.37
48386;BME280;34644;47.964;7.982;2023-08-08T00:54:40;96877.16;;;17.88;55.26
48386;BME280;34644;47.964;7.982;2023-08-08T01:01:43;96873.16;;;17.81;55.45
48386;BME280;34644;47.964;7.982;2023-08-08T01:08:48;96865.66;;;17.83;55.33
48386;BME280;34644;47.964;7.982;2023-08-08T01:15:51;96869.94;;;17.84;55.17
48386;BME280;34644;47.964;7.982;2023-08-08T01:23:09;96871.00;;;17.83;55.19
48386;BME280;34644;47.964;7.982;2023-08-08T01:30:11;96865.44;;;17.79;55.09
48386;BME280;34644;47.964;7.982;2023-08-08T01:37:24;96860.91;;;17.75;55.05
48386;BME280;34644;47.964;7.982;2023-08-08T01:44:29;96865.44;;;17.74;54.97
48386;BME280;34644;47.964;7.982;2023-08-08T01:51:31;96853.94;;;17.79;54.73
48386;BME280;34644;47.964;7.982;2023-08-08T01:58:31;96856.38;;;17.75;54.56
48386;BME280;34644;47.964;7.982;2023-08-08T02:05:31;96851.03;;;17.75;54.53
48386;BME280;34644;47.964;7.982;2023-08-08T02:12:32;96846.59;;;17.60;54.70
48386;BME280;34644;47.964;7.982;2023-08-08T02:19:33;96846.53;;;17.70;54.47
48386;BME280;34644;47.964;7.982;2023-08-08T02:26:33;96851.84;;;17.70;54.33
48386;BME280;34644;47.964;7.982;2023-08-08T02:33:33;96849.22;;;17.65;54.52
48386;BME280;34644;47.964;7.982;2023-08-08T02:40:34;96866.81;;;17.66;54.17
48386;BME280;34644;47.964;7.982;2023-08-08T02:47:35;96853.75;;;17.65;54.11
48386;BME280;34644;47.964;7.982;2023-08-08T02:54:35;96858.53;;;17.63;54.15
48386;BME280;34644;47.964;7.982;2023-08-08T03:01:35;96848.16;;;17.61;53.90
48386;BME280;34644;47.964;7.982;2023-08-08T03:08:44;96849.75;;;17.62;53.80
48386;BME280;34644;47.964;7.982;2023-08-08T03:15:45;96838.03;;;17.58;53.86
48386;BME280;34644;47.964;7.982;2023-08-08T03:22:45;96835.91;;;17.60;53.70
48386;BME280;34644;47.964;7.982;2023-08-08T03:29:46;96836.97;;;17.59;53.77
48386;BME280;34644;47.964;7.982;2023-08-08T03:36:46;96844.72;;;17.56;53.73
48386;BME280;34644;47.964;7.982;2023-08-08T03:43:48;96842.06;;;17.56;53.65
48386;BME280;34644;47.964;7.982;2023-08-08T03:50:49;96846.03;;;17.58;53.61
48386;BME280;34644;47.964;7.982;2023-08-08T03:57:49;96844.72;;;17.56;53.31
48386;BME280;34644;47.964;7.982;2023-08-08T04:04:50;96836.72;;;17.50;53.61
48386;BME280;34644;47.964;7.982;2023-08-08T04:11:50;96849.28;;;17.50;53.14
48386;BME280;34644;47.964;7.982;2023-08-08T04:18:51;96853.53;;;17.51;53.30
48386;BME280;34644;47.964;7.982;2023-08-08T04:25:52;96851.69;;;17.46;53.64
48386;BME280;34644;47.964;7.982;2023-08-08T04:32:52;96855.94;;;17.52;53.73
48386;BME280;34644;47.964;7.982;2023-08-08T04:39:52;96853.78;;;17.54;53.80
48386;BME280;34644;47.964;7.982;2023-08-08T04:46:53;96850.31;;;17.59;53.93
48386;BME280;34644;47.964;7.982;2023-08-08T04:53:53;96863.75;;;16.36;54.09
48386;BME280;34644;47.964;7.982;2023-08-08T05:00:53;96865.34;;;16.37;54.17
48386;BME280;34644;47.964;7.982;2023-08-08T05:07:55;96869.59;;;16.27;54.30
48386;BME280;34644;47.964;7.982;2023-08-08T05:14:55;96853.38;;;16.39;54.27
48386;BME280;34644;47.964;7.982;2023-08-08T05:21:55;96859.78;;;16.90;53.78
48386;BME280;34644;47.964;7.982;2023-08-08T05:28:56;96846.75;;;16.98;54.13
48386;BME280;34644;47.964;7.982;2023-08-08T05:35:56;96834.50;;;16.87;54.42
48386;BME280;34644;47.964;7.982;2023-08-08T05:42:57;96833.66;;;17.07;54.16
48386;BME280;34644;47.964;7.982;2023-08-08T05:49:57;96840.06;;;17.11;54.22
48386;BME280;34644;47.964;7.982;2023-08-08T05:56:57;96845.09;;;17.08;54.40
48386;BME280;34644;47.964;7.982;2023-08-08T06:03:57;96841.38;;;17.09;54.53
48386;BME280;34644;47.964;7.982;2023-08-08T06:10:59;96846.97;;;17.12;54.85
48386;BME280;34644;47.964;7.982;2023-08-08T06:18:02;96850.69;;;17.16;54.72
48386;BME280;34644;47.964;7.982;2023-08-08T06:25:02;96841.91;;;17.21;54.59
48386;BME280;34644;47.964;7.982;2023-08-08T06:32:03;96842.41;;;17.23;54.63
48386;BME280;34644;47.964;7.982;2023-08-08T06:39:06;96829.66;;;17.15;54.95
48386;BME280;34644;47.964;7.982;2023-08-08T06:46:06;96844.03;;;17.24;54.98
48386;BME280;34644;47.964;7.982;2023-08-08T06:53:07;96837.06;;;17.33;54.76
48386;BME280;34644;47.964;7.982;2023-08-08T07:00:07;96824.81;;;17.32;55.11
48386;BME280;34644;47.964;7.982;2023-08-08T07:07:08;96833.06;;;17.36;55.11
48386;BME280;34644;47.964;7.982;2023-08-08T07:14:08;96833.59;;;17.38;55.18
48386;BME280;34644;47.964;7.982;2023-08-08T07:21:08;96822.69;;;17.40;55.26
48386;BME280;34644;47.964;7.982;2023-08-08T07:28:09;96822.09;;;17.48;55.11
48386;BME280;34644;47.964;7.982;2023-08-08T07:35:09;96823.13;;;17.52;54.94
48386;BME280;34644;47.964;7.982;2023-08-08T07:42:10;96813.28;;;17.52;55.33
48386;BME280;34644;47.964;7.982;2023-08-08T07:49:11;96819.38;;;17.58;55.02
48386;BME280;34644;47.964;7.982;2023-08-08T07:56:11;96816.19;;;17.61;55.03
48386;BME280;34644;47.964;7.982;2023-08-08T08:03:11;96819.38;;;17.63;54.92
48386;BME280;34644;47.964;7.982;2023-08-08T08:10:12;96815.91;;;17.68;55.47
48386;BME280;34644;47.964;7.982;2023-08-08T08:17:13;96794.81;;;17.71;55.35
48386;BME280;34644;47.964;7.982;2023-08-08T08:24:13;96793.44;;;17.74;54.22
48386;BME280;34644;47.964;7.982;2023-08-08T08:31:14;96792.63;;;17.84;53.35
48386;BME280;34644;47.964;7.982;2023-08-08T08:38:17;96799.53;;;17.85;53.92
48386;BME280;34644;47.964;7.982;2023-08-08T08:45:17;96799.53;;;17.95;54.30
48386;BME280;34644;47.964;7.982;2023-08-08T08:52:19;96796.34;;;17.88;54.46
48386;BME280;34644;47.964;7.982;2023-08-08T08:59:20;96794.19;;;17.95;53.35
48386;BME280;34644;47.964;7.982;2023-08-08T09:06:21;96794.06;;;18.16;51.98
48386;BME280;34644;47.964;7.982;2023-08-08T09:13:22;96794.59;;;18.13;51.49
48386;BME280;34644;47.964;7.982;2023-08-08T09:20:23;96789.78;;;18.15;51.70
48386;BME280;34644;47.964;7.982;2023-08-08T09:27:28;96784.53;;;18.39;50.59
48386;BME280;34644;47.964;7.982;2023-08-08T09:34:28;96787.75;;;18.36;51.09
48386;BME280;34644;47.964;7.982;2023-08-08T09:41:29;96796.00;;;18.39;51.70
48386;BME280;34644;47.964;7.982;2023-08-08T09:48:29;96784.81;;;18.37;49.91
48386;BME280;34644;47.964;7.982;2023-08-08T09:55:31;96778.28;;;18.54;50.47
48386;BME280;34644;47.964;7.982;2023-08-08T10:02:32;96777.19;;;18.55;50.71
48386;BME280;34644;47.964;7.982;2023-08-08T10:09:33;96764.44;;;18.52;50.60
48386;BME280;34644;47.964;7.982;2023-08-08T10:16:33;96756.78;;;18.69;49.43
48386;BME280;34644;47.964;7.982;2023-08-08T10:23:37;96762.47;;;18.92;49.25
48386;BME280;34644;47.964;7.982;2023-08-08T10:30:48;96758.31;;;18.75;49.68
48386;BME280;34644;47.964;7.982;2023-08-08T10:37:52;96768.16;;;18.85;49.20
48386;BME280;34644;47.964;7.982;2023-08-08T10:44:54;96759.78;;;18.92;48.52
48386;BME280;34644;47.964;7.982;2023-08-08T10:52:01;96759.00;;;18.91;49.79
48386;BME280;34644;47.964;7.982;2023-08-08T10:59:11;96769.56;;;18.72;50.64
48386;BME280;34644;47.964;7.982;2023-08-08T11:06:11;96762.41;;;18.68;51.41
48386;BME280;34644;47.964;7.982;2023-08-08T11:13:11;96750.34;;;18.70;51.94
48386;BME280;34644;47.964;7.982;2023-08-08T11:20:12;96754.91;;;18.70;51.58
48386;BME280;34644;47.964;7.982;2023-08-08T11:27:12;96759.47;;;18.69;51.34
48386;BME280;34644;47.964;7.982;2023-08-08T11:34:14;96750.06;;;18.72;51.34
48386;BME280;34644;47.964;7.982;2023-08-08T11:41:16;96735.88;;;18.76;51.45
48386;BME280;34644;47.964;7.982;2023-08-08T11:48:20;96741.28;;;18.71;51.51
48386;BME280;34644;47.964;7.982;2023-08-08T11:55:21;96734.59;;;18.74;51.33
48386;BME280;34644;47.964;7.982;2023-08-08T12:02:22;96727.81;;;18.81;51.34
48386;BME280;34644;47.964;7.982;2023-08-08T12:09:23;96729.69;;;18.81;51.50
48386;BME280;34644;47.964;7.982;2023-08-08T12:16:29;96728.91;;;18.80;51.29
48386;BME280;34644;47.964;7.982;2023-08-08T12:23:32;96735.88;;;18.76;51.51
48386;BME280;34644;47.964;7.982;2023-08-08T12:30:33;96728.38;;;18.78;51.28
48386;BME280;34644;47.964;7.982;2023-08-08T12:37:33;96718.78;;;18.77;51.15
48386;BME280;34644;47.964;7.982;2023-08-08T12:44:34;96715.25;;;18.87;51.11
48386;BME280;34644;47.964;7.982;2023-08-08T12:51:34;96717.56;;;18.94;50.42
48386;BME280;34644;47.964;7.982;2023-08-08T12:58:34;96719.28;;;18.85;51.23
48386;BME280;34644;47.964;7.982;2023-08-08T13:05:34;96709.97;;;18.77;51.64
48386;BME280;34644;47.964;7.982;2023-08-08T13:12:35;96710.84;;;18.72;51.63
48386;BME280;34644;47.964;7.982;2023-08-08T13:19:39;96709.47;;;18.75;51.54
48386;BME280;34644;47.964;7.982;2023-08-08T13:26:39;96710.50;;;18.79;51.43
48386;BME280;34644;47.964;7.982;2023-08-08T13:33:39;96708.63;;;18.79;51.37
48386;BME280;34644;47.964;7.982;2023-08-08T13:40:40;96702.56;;;18.74;51.71
48386;BME280;34644;47.964;7.982;2023-08-08T13:47:41;96701.75;;;18.73;52.04
48386;BME280;34644;47.964;7.982;2023-08-08T13:54:41;96699.91;;;18.69;51.88
48386;BME280;34644;47.964;7.982;2023-08-08T14:01:41;96702.31;;;18.70;51.56
48386;BME280;34644;47.964;7.982;2023-08-08T14:08:42;96706.78;;;18.75;51.43
48386;BME280;34644;47.964;7.982;2023-08-08T14:15:42;96698.50;;;18.76;51.22
48386;BME280;34644;47.964;7.982;2023-08-08T14:22:46;96689.53;;;18.67;51.94
48386;BME280;34644;47.964;7.982;2023-08-08T14:29:47;96696.25;;;18.65;52.25
48386;BME280;34644;47.964;7.982;2023-08-08T14:36:47;96688.25;;;18.65;52.18
48386;BME280;34644;47.964;7.982;2023-08-08T14:43:48;96690.09;;;18.64;52.37
48386;BME280;34644;47.964;7.982;2023-08-08T14:50:48;96700.47;;;18.66;52.42
48386;BME280;34644;47.964;7.982;2023-08-08T14:57:49;96698.34;;;18.68;52.66
48386;BME280;34644;47.964;7.982;2023-08-08T15:04:49;96707.66;;;18.70;52.49
48386;BME280;34644;47.964;7.982;2023-08-08T15:11:49;96709.03;;;18.68;52.68
48386;BME280;34644;47.964;7.982;2023-08-08T15:18:52;96709.81;;;18.68;52.95
48386;BME280;34644;47.964;7.982;2023-08-08T15:25:52;96699.13;;;18.68;53.01
48386;BME280;34644;47.964;7.982;2023-08-08T15:32:52;96706.91;;;18.65;52.96
48386;BME280;34644;47.964;7.982;2023-08-08T15:39:53;96696.25;;;18.65;53.10
48386;BME280;34644;47.964;7.982;2023-08-08T15:46:53;96702.88;;;18.67;53.33
48386;BME280;34644;47.964;7.982;2023-08-08T15:53:53;96697.81;;;18.66;53.39
48386;BME280;34644;47.964;7.982;2023-08-08T16:00:54;96692.75;;;18.64;54.01
48386;BME280;34644;47.964;7.982;2023-08-08T16:07:55;96692.75;;;18.64;53.90
48386;BME280;34644;47.964;7.982;2023-08-08T16:14:56;96690.63;;;18.66;53.71
48386;BME280;34644;47.964;7.982;2023-08-08T16:21:56;96695.13;;;18.71;53.74
48386;BME280;34644;47.964;7.982;2023-08-08T16:28:56;96699.91;;;18.69;53.76
48386;BME280;34644;47.964;7.982;2023-08-08T16:35:57;96700.72;;;18.69;53.63
48386;BME280;34644;47.964;7.982;2023-08-08T16:42:57;96698.06;;;18.69;54.21
48386;BME280;34644;47.964;7.982;2023-08-08T16:49:57;96697.53;;;18.67;54.55
48386;BME280;34644;47.964;7.982;2023-08-08T16:56:57;96705.03;;;18.65;54.19
48386;BME280;34644;47.964;7.982;2023-08-08T17:03:58;96715.72;;;18.65;54.07
48386;BME280;34644;47.964;7.982;2023-08-08T17:10:58;96716.50;;;18.66;54.10
48386;BME280;34644;47.964;7.982;2023-08-08T17:17:58;96707.19;;;18.63;54.28
48386;BME280;34644;47.964;7.982;2023-08-08T17:24:59;96705.03;;;18.65;54.14
48386;BME280;34644;47.964;7.982;2023-08-08T17:31:59;96708.78;;;18.64;54.40
48386;BME280;34644;47.964;7.982;2023-08-08T17:38:59;96714.41;;;18.62;54.63
48386;BME280;34644;47.964;7.982;2023-08-08T17:45:59;96723.72;;;18.65;54.75
48386;BME280;34644;47.964;7.982;2023-08-08T17:53:00;96721.06;;;18.65;55.07
48386;BME280;34644;47.964;7.982;2023-08-08T18:00:00;96731.72;;;18.65;54.95
48386;BME280;34644;47.964;7.982;2023-08-08T18:07:01;96729.56;;;18.67;55.12
48386;BME280;34644;47.964;7.982;2023-08-08T18:14:01;96733.34;;;18.66;54.85
48386;BME280;34644;47.964;7.982;2023-08-08T18:21:02;96747.19;;;18.68;55.71
48386;BME280;34644;47.964;7.982;2023-08-08T18:28:02;96735.38;;;18.74;56.79
48386;BME280;34644;47.964;7.982;2023-08-08T18:35:03;96723.72;;;18.65;57.59
48386;BME280;34644;47.964;7.982;2023-08-08T18:42:03;96709.41;;;18.56;57.76
48386;BME280;34644;47.964;7.982;2023-08-08T18:49:04;96710.78;;;18.53;57.20
48386;BME280;34644;47.964;7.982;2023-08-08T18:56:05;96711.56;;;18.54;57.14
48386;BME280;34644;47.964;7.982;2023-08-08T19:03:05;96723.34;;;18.48;57.09
48386;BME280;34644;47.964;7.982;2023-08-08T19:10:05;96734.03;;;18.48;57.12
48386;BME280;34644;47.964;7.982;2023-08-08T19:17:06;96714.84;;;18.46;56.99
48386;BME280;34644;47.964;7.982;2023-08-08T19:24:06;96731.69;;;18.41;57.30
48386;BME280;34644;47.964;7.982;2023-08-08T19:31:06;96731.41;;;18.42;57.29
48386;BME280;34644;47.964;7.982;2023-08-08T19:38:07;96733.53;;;18.40;57.20
48386;BME280;34644;47.964;7.982;2023-08-08T19:45:07;96735.44;;;18.40;57.54
48386;BME280;34644;47.964;7.982;2023-08-08T19:52:08;96757.09;;;18.33;57.83
48386;BME280;34644;47.964;7.982;2023-08-08T19:59:08;96743.78;;;18.33;57.84
48386;BME280;34644;47.964;7.982;2023-08-08T20:06:09;96740.00;;;18.34;57.93
48386;BME280;34644;47.964;7.982;2023-08-08T20:13:10;96744.78;;;18.37;57.40
48386;BME280;34644;47.964;7.982;2023-08-08T20:20:12;96741.56;;;18.40;57.25
48386;BME280;34644;47.964;7.982;2023-08-08T20:27:12;96740.78;;;18.40;57.47
48386;BME280;34644;47.964;7.982;2023-08-08T20:34:13;96745.31;;;18.39;57.75
48386;BME280;34644;47.964;7.982;2023-08-08T20:41:13;96736.75;;;18.42;57.38
48386;BME280;34644;47.964;7.982;2023-08-08T20:48:13;96736.22;;;18.40;57.45
48386;BME280;34644;47.964;7.982;2023-08-08T20:55:14;96734.94;;;18.38;57.32
48386;BME280;34644;47.964;7.982;2023-08-08T21:02:14;96738.09;;;18.40;57.24
48386;BME280;34644;47.964;7.982;2023-08-08T21:09:14;96733.59;;;18.35;57.32
48386;BME280;34644;47.964;7.982;2023-08-08T21:16:15;96727.19;;;18.36;57.27
48386;BME280;34644;47.964;7.982;2023-08-08T21:23:15;96734.66;;;18.39;57.19
48386;BME280;34644;47.964;7.982;2023-08-08T21:30:15;96727.19;;;18.36;57.05
48386;BME280;34644;47.964;7.982;2023-08-08T21:37:16;96731.22;;;18.34;57.24
48386;BME280;34644;47.964;7.982;2023-08-08T21:44:16;96728.25;;;18.35;57.20
48386;BME280;34644;47.964;7.982;2023-08-08T21:51:16;96719.75;;;18.33;57.49
48386;BME280;34644;47.964;7.982;2023-08-08T21:58:17;96714.69;;;18.32;57.36
48386;BME280;34644;47.964;7.982;2023-08-08T22:05:19;96705.09;;;18.31;57.36
48386;BME280;34644;47.964;7.982;2023-08-08T22:12:19;96703.75;;;18.33;57.34
48386;BME280;34644;47.964;7.982;2023-08-08T22:19:20;96685.56;;;18.35;57.22
48386;BME280;34644;47.964;7.982;2023-08-08T22:26:20;96669.13;;;18.28;57.42
48386;BME280;34644;47.964;7.982;2023-08-08T22:33:20;96678.19;;;18.27;57.48
48386;BME280;34644;47.964;7.982;2023-08-08T22:40:21;96680.81;;;18.32;57.31
48386;BME280;34644;47.964;7.982;2023-08-08T22:47:21;96672.84;;;18.27;57.38
48386;BME280;34644;47.964;7.982;2023-08-08T22:54:22;96673.13;;;18.25;57.55
48386;BME280;34644;47.964;7.982;2023-08-08T23:01:22;96670.69;;;18.29;57.41
48386;BME280;34644;47.964;7.982;2023-08-08T23:08:23;96661.06;;;18.33;58.33
48386;BME280;34644;47.964;7.982;2023-08-08T23:15:24;96660.03;;;18.29;58.75
48386;BME280;34644;47.964;7.982;2023-08-08T23:22:24;96659.56;;;18.22;58.56
48386;BME280;34644;47.964;7.982;2023-08-08T23:29:24;96662.69;;;18.29;58.26
48386;BME280;34644;47.964;7.982;2023-08-08T23:36:24;96657.88;;;18.31;58.02
48386;BME280;34644;47.964;7.982;2023-08-08T23:43:25;96655.72;;;18.33;58.23
48386;BME280;34644;47.964;7.982;2023-08-08T23:50:25;96659.97;;;18.34;58.16
48386;BME280;34644;47.964;7.982;2023-08-08T23:57:25;96661.63;;;18.30;58.28
